Time;durP1;ratioP1;P1;durP2;ratioP2;P2;SDS_P1;SDS_P2;PMS_P1;PMS_P2;Temp;Humidity;BMP_temperature;BMP_pressure;BME280_temperature;BME280_humidity;BME280_pressure;Samples;Min_cycle;Max_cycle;Signal;HPM_P1;HPM_P2
2021/01/19 00:02:09;;;;;;;6.47;3.53;;;;;;;2.80;76.47;97780.28;4898764;29;20041;-80
2021/01/19 00:04:35;;;;;;;7.90;3.83;;;;;;;2.62;76.43;97767.78;4911064;29;20048;-80
2021/01/19 00:07:00;;;;;;;8.70;4.22;;;;;;;2.59;76.57;97778.44;4894180;29;20048;-79
2021/01/19 00:09:26;;;;;;;5.75;3.25;;;;;;;2.75;75.86;97775.66;4919440;29;20570;-80
2021/01/19 00:11:51;;;;;;;7.22;3.22;;;;;;;2.77;76.11;97773.72;4892872;29;20036;-81
2021/01/19 00:14:17;;;;;;;9.02;3.60;;;;;;;2.76;75.92;97774.69;4913068;29;20395;-81
2021/01/19 00:16:43;;;;;;;7.35;3.10;;;;;;;2.69;75.82;97766.13;4883320;29;20060;-80
2021/01/19 00:19:09;;;;;;;8.55;3.33;;;;;;;2.77;75.29;97765.19;4906077;29;20462;-81
2021/01/19 00:21:37;;;;;;;6.25;3.20;;;;;;;2.71;75.76;97753.06;4899480;29;20478;-80
2021/01/19 00:24:02;;;;;;;7.55;2.85;;;;;;;2.77;75.78;97754.91;4856180;29;20072;-80
2021/01/19 00:26:28;;;;;;;7.22;3.85;;;;;;;2.71;75.59;97764.16;4896253;29;20035;-80
2021/01/19 00:28:54;;;;;;;4.25;2.65;;;;;;;2.79;75.43;97764.06;4890702;29;20040;-80
2021/01/19 00:31:20;;;;;;;5.10;2.88;;;;;;;2.81;75.03;97746.66;4921408;29;20091;-80
2021/01/19 00:33:45;;;;;;;4.57;2.80;;;;;;;2.88;75.05;97756.22;4901652;29;20039;-80
2021/01/19 00:36:10;;;;;;;6.90;3.00;;;;;;;2.74;75.33;97756.09;4879765;29;20044;-80
2021/01/19 00:38:36;;;;;;;5.90;2.83;;;;;;;2.89;75.22;97747.53;4910055;29;20494;-81
2021/01/19 00:41:03;;;;;;;4.65;2.75;;;;;;;2.76;75.61;97743.84;4878563;29;20456;-80
2021/01/19 00:43:29;;;;;;;5.90;2.60;;;;;;;2.92;74.79;97736.91;4915196;29;20284;-80
2021/01/19 00:45:54;;;;;;;8.32;3.67;;;;;;;2.90;74.80;97736.28;4880895;29;20042;-80
2021/01/19 00:48:21;;;;;;;5.40;2.80;;;;;;;2.83;75.36;97730.25;4913285;29;20524;-80
2021/01/19 00:50:49;;;;;;;6.40;2.80;;;;;;;2.74;75.52;97730.38;4883886;29;20036;-80
2021/01/19 00:53:14;;;;;;;4.55;2.80;;;;;;;2.67;75.98;97732.06;4898858;29;20043;-80
2021/01/19 00:55:40;;;;;;;8.23;3.03;;;;;;;2.65;75.48;97718.59;4883681;29;20042;-80
2021/01/19 00:58:06;;;;;;;7.47;3.08;;;;;;;2.50;76.14;97726.34;4900021;29;20040;-80
2021/01/19 01:00:32;;;;;;;5.25;2.85;;;;;;;2.66;75.72;97716.78;4902274;29;20039;-80
2021/01/19 01:02:57;;;;;;;7.45;3.10;;;;;;;2.70;75.50;97708.56;4876020;29;20036;-80
2021/01/19 01:05:23;;;;;;;4.93;2.80;;;;;;;2.52;76.04;97693.53;4888740;29;20159;-80
2021/01/19 01:07:48;;;;;;;5.22;2.63;;;;;;;2.69;75.72;97685.59;4914855;29;20483;-80
2021/01/19 01:10:16;;;;;;;7.20;3.03;;;;;;;2.59;75.87;97691.03;4892833;29;20464;-80
2021/01/19 01:12:45;;;;;;;5.53;2.67;;;;;;;2.56;75.74;97699.91;4902446;29;20067;-80
2021/01/19 01:15:19;;;;;;;6.65;3.35;;;;;;;2.58;75.37;97695.38;4914876;29;20487;-81
2021/01/19 01:17:45;;;;;;;7.45;2.47;;;;;;;2.80;75.51;97693.63;4914516;29;20148;-80
2021/01/19 01:20:11;;;;;;;6.55;3.00;;;;;;;2.77;74.67;97690.63;4925745;29;20123;-80
2021/01/19 01:22:44;;;;;;;4.95;2.33;;;;;;;2.60;75.67;97690.88;4915284;29;20103;-80
2021/01/19 01:25:14;;;;;;;6.20;2.67;;;;;;;2.65;75.64;97674.88;4885586;29;20042;-80
2021/01/19 01:27:41;;;;;;;6.75;2.67;;;;;;;2.61;75.48;97686.50;4914101;29;20031;-80
2021/01/19 01:30:09;;;;;;;6.28;3.15;;;;;;;2.72;74.92;97668.03;4901226;29;20115;-81
2021/01/19 01:32:47;;;;;;;7.22;3.05;;;;;;;2.68;75.41;97678.88;4901824;29;20032;-81
2021/01/19 01:35:13;;;;;;;4.45;2.63;;;;;;;2.76;75.21;97677.00;4880471;29;20035;-80
2021/01/19 01:37:47;;;;;;;6.60;2.70;;;;;;;2.60;74.89;97677.19;4880677;29;20032;-80
2021/01/19 01:40:18;;;;;;;5.38;2.92;;;;;;;2.73;74.76;97659.34;4896365;29;20127;-81
2021/01/19 01:42:43;;;;;;;9.15;3.20;;;;;;;2.79;75.13;97656.06;4915303;29;20294;-80
2021/01/19 01:45:10;;;;;;;5.85;2.63;;;;;;;2.70;75.11;97651.19;4915578;29;20044;-80
2021/01/19 01:47:38;;;;;;;4.15;2.50;;;;;;;2.65;74.58;97648.38;4915789;29;20067;-80
2021/01/19 01:50:06;;;;;;;6.28;2.78;;;;;;;2.67;75.00;97643.84;4909535;29;20054;-80
2021/01/19 01:52:32;;;;;;;5.05;2.35;;;;;;;2.73;74.90;97645.69;4897297;29;20043;-80
2021/01/19 01:54:59;;;;;;;7.32;2.97;;;;;;;2.73;74.64;97628.50;4903083;29;20102;-80
2021/01/19 01:57:25;;;;;;;5.60;2.78;;;;;;;2.71;74.91;97627.88;4898503;29;20050;-80
2021/01/19 01:59:59;;;;;;;6.47;2.42;;;;;;;2.54;74.91;97621.38;4910227;29;20087;-81
2021/01/19 02:02:25;;;;;;;6.07;2.70;;;;;;;2.78;74.75;97625.38;4909056;24;20241;-79
2021/01/19 02:04:51;;;;;;;4.22;2.28;;;;;;;2.61;75.16;97622.25;4929984;28;20035;-79
2021/01/19 02:07:36;;;;;;;6.55;2.53;;;;;;;2.52;74.66;97623.31;4940089;29;20051;-80
2021/01/19 02:10:09;;;;;;;4.60;2.10;;;;;;;2.35;75.21;97615.84;4931142;29;20146;-79
2021/01/19 02:12:48;;;;;;;5.10;2.70;;;;;;;2.49;74.78;97603.13;4947272;29;20091;-78
2021/01/19 02:15:15;;;;;;;6.13;2.80;;;;;;;2.75;74.31;97603.38;4948786;29;20087;-79
2021/01/19 02:18:14;;;;;;;6.18;2.25;;;;;;;2.53;74.33;97594.06;4933316;29;20030;-79
2021/01/19 02:20:53;;;;;;;4.93;2.35;;;;;;;2.68;74.17;97597.41;4949832;29;20051;-79
2021/01/19 02:23:37;;;;;;;6.10;2.63;;;;;;;2.81;73.54;97583.84;4934917;29;20042;-80
2021/01/19 02:26:22;;;;;;;8.60;3.03;;;;;;;2.58;73.54;97582.25;4935490;29;20041;-79
2021/01/19 02:28:56;;;;;;;5.72;2.17;;;;;;;2.69;73.35;97587.91;4951938;29;20110;-79
2021/01/19 02:31:44;;;;;;;6.63;2.60;;;;;;;2.75;73.58;97593.09;4951262;29;20359;-79
2021/01/19 02:34:19;;;;;;;6.82;2.50;;;;;;;2.71;74.24;97576.47;4949703;28;20038;-79
2021/01/19 02:36:50;;;;;;;5.68;2.45;;;;;;;2.53;74.62;97571.72;4952160;29;20496;-80
2021/01/19 02:39:29;;;;;;;4.72;2.17;;;;;;;2.54;73.79;97577.69;4936247;29;20481;-79
2021/01/19 02:41:56;;;;;;;5.82;2.47;;;;;;;2.62;74.50;97570.66;4923714;29;20023;-79
2021/01/19 02:44:25;;;;;;;8.00;2.97;;;;;;;2.52;73.71;97562.44;4932606;29;20036;-78
2021/01/19 02:46:56;;;;;;;4.97;2.20;;;;;;;2.51;74.13;97560.84;4933214;29;20093;-79
2021/01/19 02:49:22;;;;;;;4.90;2.20;;;;;;;2.79;73.66;97558.34;4950938;29;20077;-80
2021/01/19 02:51:53;;;;;;;5.20;2.60;;;;;;;2.57;74.34;97554.16;4952478;29;20059;-79
2021/01/19 02:54:19;;;;;;;5.82;2.63;;;;;;;2.74;74.08;97562.44;4935927;29;20470;-78
2021/01/19 02:57:05;;;;;;;4.25;2.50;;;;;;;2.44;74.96;97557.41;4955403;28;20089;-79
2021/01/19 02:59:38;;;;;;;4.25;2.38;;;;;;;2.72;74.45;97562.59;4935865;29;20496;-79
2021/01/19 03:02:06;;;;;;;4.60;2.40;;;;;;;2.65;73.98;97548.91;4939912;28;20049;-79
2021/01/19 03:04:33;;;;;;;4.30;2.47;;;;;;;2.60;75.08;97561.50;4954720;28;20042;-79
2021/01/19 03:07:06;;;;;;;7.05;2.55;;;;;;;2.66;74.34;97567.69;4934947;29;20043;-79
2021/01/19 03:09:35;;;;;;;5.65;2.58;;;;;;;2.57;74.49;97560.13;4947557;29;20520;-79
2021/01/19 03:12:01;;;;;;;6.53;2.50;;;;;;;2.80;74.39;97549.63;4948211;29;20031;-79
2021/01/19 03:14:27;;;;;;;4.97;2.50;;;;;;;2.80;74.44;97549.63;4951163;29;20031;-78
2021/01/19 03:17:02;;;;;;;7.40;3.35;;;;;;;2.58;74.39;97532.63;4936061;29;20095;-79
2021/01/19 03:19:28;;;;;;;8.95;2.83;;;;;;;2.62;75.54;97533.84;4941366;28;20045;-79
2021/01/19 03:21:55;;;;;;;11.32;3.35;;;;;;;2.70;75.02;97527.78;4950924;29;20035;-79
2021/01/19 03:24:20;;;;;;;7.88;2.60;;;;;;;2.66;75.43;97517.09;4945870;29;20043;-78
2021/01/19 03:26:46;;;;;;;7.85;2.85;;;;;;;2.68;75.33;97515.13;4950646;28;20035;-78
2021/01/19 03:29:12;;;;;;;7.32;2.88;;;;;;;2.62;75.37;97506.38;4934585;29;20027;-78
2021/01/19 03:31:41;;;;;;;9.23;2.97;;;;;;;2.68;75.60;97509.97;4934033;29;20031;-79
2021/01/19 03:34:07;;;;;;;5.47;2.75;;;;;;;2.63;75.88;97507.16;4951590;28;20482;-80
2021/01/19 03:36:35;;;;;;;6.28;2.95;;;;;;;2.77;75.14;97506.28;4943761;29;20067;-79
2021/01/19 03:39:01;;;;;;;8.40;2.83;;;;;;;2.77;75.21;97513.22;4950264;29;20545;-80
2021/01/19 03:41:27;;;;;;;5.35;2.38;;;;;;;2.89;74.45;97505.78;4936733;29;20020;-78
2021/01/19 03:43:53;;;;;;;5.07;2.33;;;;;;;2.79;74.66;97508.66;4950659;29;20098;-79
2021/01/19 03:46:19;;;;;;;7.20;2.90;;;;;;;2.61;75.32;97501.41;4951676;29;20597;-79
2021/01/19 03:48:44;;;;;;;7.53;3.25;;;;;;;2.45;75.83;97487.06;4934669;29;20102;-78
2021/01/19 03:51:10;;;;;;;5.32;2.90;;;;;;;2.66;74.87;97499.09;4950499;29;20269;-78
2021/01/19 03:53:38;;;;;;;7.60;2.78;;;;;;;2.73;74.97;97492.22;4934374;29;20031;-79
2021/01/19 03:56:04;;;;;;;5.55;2.65;;;;;;;2.74;74.61;97491.25;4954805;28;20125;-78
2021/01/19 03:58:31;;;;;;;13.02;4.93;;;;;;;2.76;74.83;97497.00;4950360;29;20118;-79
2021/01/19 04:00:57;;;;;;;7.03;3.00;;;;;;;2.73;74.86;97492.22;4950323;28;20023;-78
2021/01/19 04:03:23;;;;;;;6.88;3.00;;;;;;;2.76;75.23;97481.56;4933614;29;20185;-78
2021/01/19 04:05:49;;;;;;;4.00;2.20;;;;;;;2.70;74.98;97482.31;4934855;29;20110;-78
2021/01/19 04:08:14;;;;;;;10.50;3.30;;;;;;;2.71;75.20;97486.47;4949670;28;20047;-78
2021/01/19 04:10:39;;;;;;;5.15;2.45;;;;;;;2.86;74.90;97496.66;4934541;29;20070;-79
2021/01/19 04:13:05;;;;;;;9.52;3.20;;;;;;;2.63;75.48;97481.47;4933433;29;20035;-79
2021/01/19 04:15:31;;;;;;;8.15;2.90;;;;;;;2.76;75.02;97473.03;4951130;28;20470;-79
2021/01/19 04:17:57;;;;;;;5.65;3.03;;;;;;;2.67;75.04;97469.81;4951666;28;20035;-78
2021/01/19 04:20:22;;;;;;;5.18;2.50;;;;;;;2.74;74.85;97468.13;4954507;29;20036;-78
2021/01/19 04:22:49;;;;;;;6.72;3.15;;;;;;;2.78;75.15;97465.97;4960113;28;20122;-79
2021/01/19 04:25:14;;;;;;;6.70;2.95;;;;;;;2.80;75.00;97464.00;4937750;29;20126;-79
2021/01/19 04:27:39;;;;;;;7.80;3.10;;;;;;;2.69;74.80;97451.63;4954626;29;20035;-79
2021/01/19 04:30:09;;;;;;;5.40;3.65;;;;;;;2.58;75.52;97442.66;4935376;29;20043;-79
2021/01/19 04:32:36;;;;;;;6.03;2.72;;;;;;;2.65;75.78;97446.06;4954243;28;20046;-79
2021/01/19 04:35:03;;;;;;;9.20;3.25;;;;;;;2.66;75.58;97439.97;4953964;29;20147;-79
2021/01/19 04:37:29;;;;;;;10.38;3.65;;;;;;;2.68;75.33;97443.13;4936947;29;20046;-79
2021/01/19 04:39:55;;;;;;;4.30;2.67;;;;;;;2.63;75.23;97435.19;4953460;29;20035;-78
2021/01/19 04:42:21;;;;;;;6.60;2.47;;;;;;;2.72;74.63;97431.50;4952996;29;20057;-78
2021/01/19 04:44:50;;;;;;;4.95;2.70;;;;;;;2.61;74.99;97437.16;4954947;28;20074;-79
2021/01/19 04:47:19;;;;;;;7.65;2.75;;;;;;;2.66;74.93;97432.25;4921363;29;20455;-78
2021/01/19 04:49:45;;;;;;;4.93;2.45;;;;;;;2.65;75.08;97429.88;4956774;28;20130;-78
2021/01/19 04:52:14;;;;;;;6.82;2.75;;;;;;;2.64;75.17;97426.50;4936385;29;20032;-78
2021/01/19 04:55:02;;;;;;;6.18;2.80;;;;;;;2.50;74.73;97422.22;4937417;29;20115;-78
2021/01/19 04:57:31;;;;;;;5.20;3.10;;;;;;;2.57;75.39;97412.78;4954115;29;20490;-77
2021/01/19 05:00:05;;;;;;;4.68;2.33;;;;;;;2.63;75.18;97414.63;4956440;28;20345;-79
2021/01/19 05:02:40;;;;;;;6.28;2.72;;;;;;;2.62;74.79;97406.13;4932636;29;20221;-78
2021/01/19 05:05:18;;;;;;;4.95;2.65;;;;;;;2.62;75.53;97398.41;4952696;29;20367;-79
2021/01/19 05:08:16;;;;;;;5.10;2.78;;;;;;;2.47;75.50;97408.00;4952125;28;20023;-79
2021/01/19 05:10:48;;;;;;;6.85;3.20;;;;;;;2.72;74.56;97392.13;4950958;29;20548;-78
2021/01/19 05:13:14;;;;;;;7.18;2.88;;;;;;;2.83;74.89;97395.94;4935649;28;20039;-78
2021/01/19 05:15:48;;;;;;;5.78;2.78;;;;;;;2.63;75.16;97379.41;4949946;29;20035;-78
2021/01/19 05:18:16;;;;;;;7.55;2.63;;;;;;;2.59;75.78;97377.44;4953649;29;20095;-77
2021/01/19 05:20:47;;;;;;;6.40;3.22;;;;;;;2.52;75.35;97376.56;4952485;29;20172;-79
2021/01/19 05:23:21;;;;;;;5.10;2.80;;;;;;;2.67;75.64;97372.13;4958015;28;20051;-78
2021/01/19 05:25:56;;;;;;;8.20;3.25;;;;;;;2.31;75.25;97367.94;4946145;29;20043;-78
2021/01/19 05:28:39;;;;;;;8.05;3.13;;;;;;;2.39;75.94;97372.94;4951920;28;20585;-78
2021/01/19 05:31:06;;;;;;;8.13;3.53;;;;;;;2.64;75.54;97364.81;4945372;29;20039;-79
2021/01/19 05:33:35;;;;;;;7.82;3.28;;;;;;;2.72;74.88;97362.06;4935387;29;20032;-78
2021/01/19 05:36:04;;;;;;;7.22;2.67;;;;;;;2.73;74.70;97361.09;4953055;29;20032;-78
2021/01/19 05:38:30;;;;;;;7.30;3.13;;;;;;;2.72;75.10;97351.78;4936390;29;20458;-78
2021/01/19 05:40:56;;;;;;;4.72;2.50;;;;;;;2.67;75.13;97346.41;4952519;29;20039;-79
2021/01/19 05:43:27;;;;;;;4.68;2.67;;;;;;;2.39;74.86;97336.97;4953492;29;20037;-79
2021/01/19 05:45:53;;;;;;;6.07;2.70;;;;;;;2.65;75.66;97340.69;4952348;28;20035;-77
2021/01/19 05:48:19;;;;;;;8.70;3.28;;;;;;;2.62;75.60;97333.34;4953070;29;20122;-77
2021/01/19 05:50:47;;;;;;;7.35;3.03;;;;;;;2.61;74.68;97337.69;4936124;29;20393;-78
2021/01/19 05:53:14;;;;;;;5.22;2.50;;;;;;;2.64;75.36;97336.53;4956164;28;20373;-78
2021/01/19 05:55:45;;;;;;;6.72;2.67;;;;;;;2.69;74.72;97331.63;4952193;29;20447;-78
2021/01/19 05:58:15;;;;;;;9.00;2.72;;;;;;;2.74;73.80;97339.56;4936392;29;20027;-77
2021/01/19 06:00:42;;;;;;;4.70;2.15;;;;;;;2.74;74.16;97323.31;4940970;28;20023;-77
2021/01/19 06:03:16;;;;;;;5.93;2.20;;;;;;;2.69;74.41;97326.47;4964861;28;20054;-78
2021/01/19 06:05:43;;;;;;;6.53;2.47;;;;;;;2.94;73.98;97338.84;4951004;29;20242;-78
2021/01/19 06:08:10;;;;;;;4.70;1.77;;;;;;;2.85;72.93;97325.38;4952399;28;20062;-78
2021/01/19 06:10:37;;;;;;;4.72;2.67;;;;;;;2.90;73.58;97323.00;4970134;28;20066;-78
2021/01/19 06:13:04;;;;;;;3.90;1.98;;;;;;;2.80;73.62;97313.06;4970920;28;20038;-78
2021/01/19 06:15:30;;;;;;;7.78;2.78;;;;;;;2.81;73.25;97309.53;4968001;28;20066;-77
2021/01/19 06:17:56;;;;;;;6.10;2.40;;;;;;;2.80;73.74;97313.06;4934909;29;20385;-79
2021/01/19 06:20:22;;;;;;;7.05;3.00;;;;;;;2.76;73.87;97305.91;4946123;29;20027;-80
2021/01/19 06:22:48;;;;;;;4.22;1.75;;;;;;;2.75;73.41;97300.00;4950292;28;20414;-79
2021/01/19 06:25:14;;;;;;;5.53;3.03;;;;;;;2.83;74.02;97305.94;4918374;29;20038;-79
2021/01/19 06:27:40;;;;;;;6.22;2.25;;;;;;;2.75;73.77;97300.00;4934633;29;20043;-78
2021/01/19 06:30:10;;;;;;;3.75;2.03;;;;;;;2.65;73.20;97309.03;4934743;29;20035;-78
2021/01/19 06:32:46;;;;;;;7.80;2.13;;;;;;;2.70;73.35;97306.69;4951190;28;20546;-78
2021/01/19 06:35:12;;;;;;;5.60;1.70;;;;;;;2.90;72.85;97305.00;4946552;29;20050;-78
2021/01/19 06:37:39;;;;;;;7.78;2.95;;;;;;;2.90;73.19;97291.38;4951321;29;20042;-79
2021/01/19 06:40:08;;;;;;;3.60;1.75;;;;;;;2.81;73.08;97298.44;4940148;29;20497;-78
2021/01/19 06:42:34;;;;;;;7.90;2.45;;;;;;;2.96;72.34;97295.72;4934422;29;20019;-77
2021/01/19 06:45:03;;;;;;;5.25;2.00;;;;;;;2.81;72.58;97288.13;4950506;29;20553;-78
2021/01/19 06:47:29;;;;;;;3.88;1.90;;;;;;;2.83;73.08;97280.22;4934547;29;20027;-78
2021/01/19 06:49:55;;;;;;;7.45;2.92;;;;;;;2.78;73.02;97281.63;4950573;29;20058;-78
2021/01/19 06:52:24;;;;;;;6.05;2.17;;;;;;;2.65;73.82;97276.41;4950434;29;20240;-78
2021/01/19 06:54:52;;;;;;;6.28;1.90;;;;;;;2.62;73.46;97271.66;4921508;29;20502;-77
2021/01/19 06:57:32;;;;;;;2.85;1.98;;;;;;;2.69;72.77;97271.69;4952221;29;20039;-77
2021/01/19 07:00:07;;;;;;;4.38;1.92;;;;;;;2.62;73.59;97269.88;4951809;29;20039;-77
2021/01/19 07:02:38;;;;;;;3.72;2.17;;;;;;;2.71;73.20;97273.09;4939349;29;20083;-77
2021/01/19 07:05:23;;;;;;;8.70;2.30;;;;;;;2.39;74.41;97265.00;4950629;29;20521;-77
2021/01/19 07:08:11;;;;;;;6.13;2.90;;;;;;;2.69;73.44;97263.97;4950316;29;20035;-78
2021/01/19 07:10:51;;;;;;;7.80;2.65;;;;;;;2.58;73.42;97260.16;4938829;29;20416;-77
2021/01/19 07:13:24;;;;;;;7.88;2.40;;;;;;;2.72;74.00;97259.22;4950664;29;20557;-78
2021/01/19 07:15:53;;;;;;;5.93;2.28;;;;;;;2.56;74.39;97259.56;4950515;29;20037;-77
2021/01/19 07:18:48;;;;;;;5.82;2.08;;;;;;;2.58;73.38;97247.31;4938684;29;20230;-77
2021/01/19 07:21:15;;;;;;;5.75;1.92;;;;;;;2.60;73.64;97250.50;4933180;29;20394;-79
2021/01/19 07:23:44;;;;;;;7.55;2.95;;;;;;;2.68;73.63;97252.13;4950670;29;20430;-77
2021/01/19 07:26:21;;;;;;;4.40;1.90;;;;;;;2.59;73.29;97230.94;4952714;28;20039;-78
2021/01/19 07:28:49;;;;;;;3.60;1.92;;;;;;;2.79;73.19;97243.84;4934404;29;20478;-77
2021/01/19 07:31:17;;;;;;;4.22;2.28;;;;;;;2.80;72.72;97248.78;4933337;28;20040;-78
2021/01/19 07:33:47;;;;;;;4.97;1.90;;;;;;;2.80;72.71;97240.28;4952761;28;20082;-78
2021/01/19 07:36:18;;;;;;;4.60;2.00;;;;;;;2.71;72.42;97246.56;4950714;29;20055;-78
2021/01/19 07:38:44;;;;;;;7.72;3.25;;;;;;;2.81;72.51;97232.38;4950767;28;20027;-77
2021/01/19 07:41:12;;;;;;;5.20;2.60;;;;;;;2.78;72.48;97240.47;4953305;28;20062;-78
2021/01/19 07:43:39;;;;;;;4.70;2.15;;;;;;;2.94;72.45;97235.97;4935003;29;20042;-77
2021/01/19 07:46:05;;;;;;;8.02;2.58;;;;;;;2.78;73.00;97232.75;4934175;29;20043;-80
2021/01/19 07:48:35;;;;;;;6.47;2.60;;;;;;;2.78;72.64;97232.75;4950778;28;20494;-77
2021/01/19 07:51:12;;;;;;;5.85;1.98;;;;;;;2.73;72.28;97227.41;4920407;29;20537;-77
2021/01/19 07:53:47;;;;;;;7.40;2.22;;;;;;;2.63;73.34;97226.97;4937947;28;20122;-77
2021/01/19 07:56:29;;;;;;;6.20;2.40;;;;;;;2.67;73.46;97222.25;4955132;29;20034;-77
2021/01/19 07:58:56;;;;;;;7.60;2.58;;;;;;;2.98;72.21;97219.16;4921792;29;20483;-78
2021/01/19 08:01:30;;;;;;;6.45;2.30;;;;;;;2.70;72.18;97214.94;4953972;29;20032;-78
2021/01/19 08:04:16;;;;;;;5.25;2.22;;;;;;;2.73;72.11;97206.06;4953774;28;20043;-79
2021/01/19 08:06:44;;;;;;;4.13;1.80;;;;;;;2.81;72.27;97200.72;4955704;28;20039;-78
2021/01/19 08:09:12;;;;;;;4.78;1.85;;;;;;;2.88;71.98;97203.31;4955014;29;20031;-77
2021/01/19 08:11:39;;;;;;;4.05;2.00;;;;;;;2.99;71.74;97188.09;4937615;29;20121;-78
2021/01/19 08:14:06;;;;;;;6.18;2.17;;;;;;;2.77;72.93;97205.47;4958732;28;20466;-77
2021/01/19 08:16:36;;;;;;;6.63;1.95;;;;;;;3.01;72.05;97193.06;4953795;29;20127;-78
2021/01/19 08:19:07;;;;;;;5.35;2.28;;;;;;;2.90;72.17;97199.56;4950817;28;20142;-77
2021/01/19 08:21:54;;;;;;;6.25;2.15;;;;;;;2.80;72.98;97194.00;4935565;29;20506;-77
2021/01/19 08:24:21;;;;;;;5.20;1.80;;;;;;;2.93;71.60;97182.94;4936917;29;20043;-77
2021/01/19 08:26:47;;;;;;;10.18;2.45;;;;;;;2.97;71.96;97181.59;4938315;28;20413;-77
2021/01/19 08:29:18;;;;;;;7.75;3.35;;;;;;;2.90;71.64;97180.78;4932322;29;20114;-78
2021/01/19 08:31:50;;;;;;;4.50;1.77;;;;;;;2.81;71.61;97175.81;4948119;28;20474;-78
2021/01/19 08:34:18;;;;;;;5.72;2.58;;;;;;;2.83;71.85;97180.78;4941285;29;20031;-78
2021/01/19 08:36:45;;;;;;;2.45;1.58;;;;;;;2.90;71.94;97167.94;4941529;29;20086;-77
2021/01/19 08:39:11;;;;;;;7.65;2.55;;;;;;;2.99;71.87;97166.75;4937703;29;20498;-78
2021/01/19 08:41:42;;;;;;;4.20;2.30;;;;;;;2.73;71.80;97164.91;4936308;29;20023;-78
2021/01/19 08:44:08;;;;;;;5.68;2.42;;;;;;;2.97;72.11;97172.09;4957299;28;20383;-77
2021/01/19 08:46:33;;;;;;;3.33;1.40;;;;;;;3.12;71.46;97164.19;4952767;29;20027;-77
2021/01/19 08:49:00;;;;;;;3.22;1.70;;;;;;;2.99;71.33;97146.16;4936610;29;20035;-78
2021/01/19 08:51:27;;;;;;;5.55;1.63;;;;;;;3.13;71.45;97147.75;4956291;28;20454;-77
2021/01/19 08:53:53;;;;;;;2.85;1.70;;;;;;;3.10;71.74;97140.47;4952743;29;20075;-79
2021/01/19 08:56:21;;;;;;;4.22;1.92;;;;;;;3.06;72.12;97143.59;4920341;29;20035;-79
2021/01/19 08:58:47;;;;;;;3.63;1.40;;;;;;;3.21;71.82;97133.91;4936405;28;20026;-78
2021/01/19 09:01:14;;;;;;;3.70;1.38;;;;;;;3.20;71.84;97142.63;4952367;28;20039;-78
2021/01/19 09:03:40;;;;;;;6.47;1.70;;;;;;;3.07;72.31;97133.13;4942220;28;20569;-78
2021/01/19 09:06:12;;;;;;;5.18;1.55;;;;;;;3.09;72.25;97126.00;4934697;29;20039;-78
2021/01/19 09:08:43;;;;;;;3.75;1.90;;;;;;;3.17;72.33;97135.28;4933992;29;20035;-78
2021/01/19 09:11:09;;;;;;;4.13;1.92;;;;;;;3.14;72.38;97120.28;4910054;29;20074;-78
2021/01/19 09:13:41;;;;;;;4.93;1.35;;;;;;;2.90;73.03;97106.22;4936937;29;20566;-77
2021/01/19 09:16:07;;;;;;;3.45;1.80;;;;;;;2.98;73.28;97118.84;4935527;28;20083;-77
2021/01/19 09:18:33;;;;;;;3.28;1.63;;;;;;;3.07;72.73;97115.13;4931234;29;20027;-78
2021/01/19 09:21:01;;;;;;;4.30;1.90;;;;;;;3.18;72.73;97117.09;4926921;29;20127;-77
2021/01/19 09:23:32;;;;;;;7.88;3.00;;;;;;;2.96;73.03;97107.97;4941711;28;20079;-77
2021/01/19 09:26:04;;;;;;;7.80;2.20;;;;;;;3.14;72.21;97097.13;4945967;29;20118;-78
2021/01/19 09:28:32;;;;;;;5.10;1.55;;;;;;;3.25;72.04;97098.28;4934761;29;20094;-77
2021/01/19 09:31:26;;;;;;;4.25;1.75;;;;;;;2.98;71.65;97111.94;4930108;29;20417;-78
2021/01/19 09:33:53;;;;;;;4.90;1.80;;;;;;;3.18;71.96;97109.38;4938504;29;20054;-78
2021/01/19 09:36:21;;;;;;;10.73;1.80;;;;;;;3.42;71.47;97114.13;4931700;29;20047;-78
2021/01/19 09:38:50;;;;;;;6.47;2.13;;;;;;;3.19;72.09;97118.69;4946885;29;20042;-78
2021/01/19 09:41:21;;;;;;;8.23;2.00;;;;;;;3.03;72.38;97111.34;4929718;29;20534;-78
2021/01/19 09:43:53;;;;;;;5.13;1.73;;;;;;;3.00;72.50;97111.75;4935174;29;20023;-78
2021/01/19 09:46:23;;;;;;;3.38;1.90;;;;;;;2.77;72.17;97101.84;4913951;29;20032;-78
2021/01/19 09:48:50;;;;;;;5.70;1.75;;;;;;;3.06;72.29;97085.22;4927338;29;20036;-78
2021/01/19 09:51:27;;;;;;;5.40;2.03;;;;;;;2.86;72.80;97102.44;4946124;28;20114;-77
2021/01/19 09:53:57;;;;;;;5.22;2.13;;;;;;;3.14;71.50;97097.91;4944159;29;20154;-77
2021/01/19 09:56:23;;;;;;;6.10;2.05;;;;;;;3.29;71.56;97084.03;4929892;29;20032;-77
2021/01/19 09:59:00;;;;;;;6.35;2.13;;;;;;;3.01;71.50;97097.91;4935503;29;20070;-77
2021/01/19 10:01:26;;;;;;;6.63;2.72;;;;;;;3.21;71.39;97089.41;4930494;29;20102;-77
2021/01/19 10:03:52;;;;;;;6.35;2.05;;;;;;;3.23;71.45;97090.78;4927689;29;20503;-78
2021/01/19 10:06:23;;;;;;;5.82;1.85;;;;;;;2.95;71.69;97085.84;4936321;29;20082;-77
2021/01/19 10:08:52;;;;;;;4.90;1.73;;;;;;;3.39;71.19;97084.41;4927531;29;20040;-78
2021/01/19 10:11:32;;;;;;;4.75;2.67;;;;;;;3.17;70.76;97076.13;4929965;29;20027;-78
2021/01/19 10:14:17;;;;;;;3.28;2.47;;;;;;;3.05;71.82;97082.84;4933366;29;20031;-78
2021/01/19 10:16:50;;;;;;;4.45;1.77;;;;;;;3.22;71.15;97085.81;4913949;29;20402;-77
2021/01/19 10:19:22;;;;;;;2.60;1.63;;;;;;;3.19;71.07;97077.50;4912175;29;20058;-78
2021/01/19 10:21:50;;;;;;;3.15;2.10;;;;;;;3.18;71.60;97072.56;4926629;29;20031;-77
2021/01/19 10:24:17;;;;;;;5.72;2.10;;;;;;;3.46;70.74;97080.06;4930425;29;20039;-78
2021/01/19 10:27:02;;;;;;;4.97;1.92;;;;;;;3.16;70.93;97059.91;4930476;29;20028;-78
2021/01/19 10:29:31;;;;;;;4.13;1.65;;;;;;;3.37;71.46;97065.81;4929270;29;20032;-78
2021/01/19 10:32:02;;;;;;;4.57;2.00;;;;;;;3.26;71.14;97058.72;4930207;29;20042;-78
2021/01/19 10:34:29;;;;;;;7.35;2.22;;;;;;;3.30;71.47;97065.81;4930731;29;20514;-78
2021/01/19 10:36:56;;;;;;;3.08;1.70;;;;;;;2.93;72.50;97056.94;4917860;29;20043;-77
2021/01/19 10:39:26;;;;;;;4.72;1.77;;;;;;;2.93;72.03;97044.06;4942941;28;20040;-78
2021/01/19 10:41:52;;;;;;;5.38;2.20;;;;;;;3.04;72.60;97053.00;4929515;29;20032;-78
2021/01/19 10:44:21;;;;;;;6.25;1.60;;;;;;;3.14;72.90;97053.38;4934055;29;20038;-78
2021/01/19 10:46:54;;;;;;;3.10;1.90;;;;;;;2.81;73.99;97047.25;4931144;29;20036;-78
2021/01/19 10:49:21;;;;;;;4.38;2.05;;;;;;;3.31;73.03;97044.25;4925612;29;20032;-78
2021/01/19 10:51:49;;;;;;;3.80;1.50;;;;;;;2.88;73.97;97034.41;4928622;29;20467;-78
2021/01/19 10:54:16;;;;;;;4.18;2.08;;;;;;;2.95;74.52;97047.25;4929241;29;20038;-78
2021/01/19 10:56:44;;;;;;;5.10;2.20;;;;;;;2.99;74.33;97043.28;4930616;29;20063;-79
2021/01/19 10:59:13;;;;;;;5.18;2.47;;;;;;;2.85;74.92;97027.09;4930663;29;20116;-78
2021/01/19 11:01:40;;;;;;;3.83;1.80;;;;;;;2.97;75.01;97033.19;4926244;28;20040;-79
2021/01/19 11:04:07;;;;;;;3.60;1.92;;;;;;;2.96;75.45;97020.53;4950884;28;20357;-79
2021/01/19 11:06:35;;;;;;;6.75;1.80;;;;;;;2.95;74.90;97021.53;4953141;28;20041;-79
2021/01/19 11:09:03;;;;;;;7.40;2.38;;;;;;;3.09;75.22;97027.47;4933458;29;20041;-79
2021/01/19 11:11:28;;;;;;;4.35;2.13;;;;;;;2.81;75.83;97013.03;4931930;29;20039;-78
2021/01/19 11:14:02;;;;;;;8.27;2.60;;;;;;;2.93;75.38;97018.34;4946433;28;20041;-80
2021/01/19 11:16:29;;;;;;;6.40;2.30;;;;;;;2.94;76.02;97014.81;4933283;29;20031;-79
2021/01/19 11:18:58;;;;;;;4.10;2.65;;;;;;;2.85;76.53;97000.59;4943016;29;20020;-79
2021/01/19 11:21:24;;;;;;;6.70;2.30;;;;;;;3.00;75.59;96996.81;4948289;28;20117;-80
2021/01/19 11:23:49;;;;;;;7.22;2.20;;;;;;;3.13;75.50;97003.69;4904265;29;20451;-79
2021/01/19 11:26:17;;;;;;;3.97;2.10;;;;;;;2.77;77.41;96997.22;4949160;28;20035;-79
2021/01/19 11:28:44;;;;;;;7.93;3.00;;;;;;;2.82;77.24;97001.75;4950321;28;20035;-77
2021/01/19 11:31:10;;;;;;;7.13;2.13;;;;;;;2.91;77.27;97003.13;4948984;29;20406;-79
2021/01/19 11:33:39;;;;;;;4.80;2.40;;;;;;;2.91;76.73;96999.78;4948650;29;20035;-79
2021/01/19 11:36:05;;;;;;;5.03;2.50;;;;;;;3.12;75.94;96994.41;4949037;29;20023;-79
2021/01/19 11:38:31;;;;;;;7.55;2.30;;;;;;;2.78;77.19;96965.38;4932564;29;20078;-77
2021/01/19 11:40:57;;;;;;;8.65;2.83;;;;;;;2.66;77.94;96997.00;4932687;29;20122;-79
2021/01/19 11:43:26;;;;;;;6.13;2.60;;;;;;;2.89;77.41;96973.47;4918457;28;20192;-77
2021/01/19 11:45:52;;;;;;;4.03;2.33;;;;;;;2.96;77.48;96981.97;4928543;29;20043;-79
2021/01/19 11:48:18;;;;;;;3.63;2.20;;;;;;;2.92;77.85;96971.28;4952083;29;20043;-78
2021/01/19 11:50:45;;;;;;;7.35;2.60;;;;;;;2.88;77.94;96979.59;4950397;28;20523;-78
2021/01/19 11:53:11;;;;;;;4.78;2.42;;;;;;;2.98;77.75;96985.13;4935831;29;20070;-78